createdAt,value
2022-08-04T00:02:20.148Z,22.40
2022-08-04T00:04:56.242Z,22.30
2022-08-04T00:07:44.183Z,22.30
2022-08-04T00:10:17.788Z,22.20
2022-08-04T00:12:49.428Z,22.20
2022-08-04T00:15:18.679Z,22.10
2022-08-04T00:17:50.108Z,22.10
2022-08-04T00:20:21.240Z,22.00
2022-08-04T00:22:50.049Z,22.00
2022-08-04T00:25:20.430Z,22.00
2022-08-04T00:27:48.605Z,22.00
2022-08-04T00:30:16.438Z,22.00
2022-08-04T00:32:44.582Z,21.90
2022-08-04T00:35:16.078Z,22.00
2022-08-04T00:37:45.919Z,21.90
2022-08-04T00:40:33.883Z,21.90
2022-08-04T00:43:11.264Z,21.90
2022-08-04T00:46:16.449Z,21.90
2022-08-04T00:49:26.066Z,21.90
2022-08-04T00:52:31.656Z,21.80
2022-08-04T00:55:09.420Z,21.80
2022-08-04T00:58:00.985Z,21.70
2022-08-04T01:00:33.757Z,21.70
2022-08-04T01:03:13.715Z,21.70
2022-08-04T01:05:53.781Z,21.70
2022-08-04T01:08:49.963Z,21.70
2022-08-04T01:11:32.468Z,21.70
2022-08-04T01:14:34.648Z,21.60
2022-08-04T01:17:16.189Z,21.50
2022-08-04T01:19:55.367Z,21.60
2022-08-04T01:22:53.015Z,21.50
2022-08-04T01:25:41.365Z,21.50
2022-08-04T01:28:29.201Z,21.50
2022-08-04T01:31:05.617Z,21.50
2022-08-04T01:34:03.871Z,21.50
2022-08-04T01:36:26.705Z,21.40
2022-08-04T01:38:55.604Z,21.40
2022-08-04T01:41:32.602Z,21.40
2022-08-04T01:44:03.765Z,21.30
2022-08-04T01:46:35.852Z,21.30
2022-08-04T01:49:04.233Z,21.30
2022-08-04T01:51:36.034Z,21.30
2022-08-04T01:54:03.960Z,21.30
2022-08-04T01:56:32.104Z,21.20
2022-08-04T01:59:03.851Z,21.20
2022-08-04T02:01:37.290Z,21.20
2022-08-04T02:04:22.029Z,21.20
2022-08-04T02:07:01.434Z,21.20
2022-08-04T02:09:54.246Z,21.20
2022-08-04T02:12:32.944Z,21.10
2022-08-04T02:15:11.391Z,21.10
2022-08-04T02:21:04.369Z,21.10
2022-08-04T02:23:40.871Z,21.00
2022-08-04T02:26:21.048Z,21.00
2022-08-04T02:29:04.431Z,21.00
2022-08-04T02:31:34.308Z,20.90
2022-08-04T02:34:09.364Z,20.90
2022-08-04T02:36:40.493Z,20.90
2022-08-04T02:39:11.307Z,20.90
2022-08-04T02:41:41.039Z,20.90
2022-08-04T02:44:10.543Z,20.90
2022-08-04T02:46:40.793Z,20.90
2022-08-04T02:49:10.992Z,20.90
2022-08-04T02:51:42.304Z,20.80
2022-08-04T02:54:11.468Z,20.80
2022-08-04T02:56:40.565Z,20.80
2022-08-04T02:59:09.894Z,20.70
2022-08-04T03:01:38.009Z,20.70
2022-08-04T03:04:42.552Z,20.70
2022-08-04T03:07:40.930Z,20.70
2022-08-04T03:10:24.380Z,20.60
2022-08-04T03:13:36.760Z,20.60
2022-08-04T03:16:38.673Z,20.60
2022-08-04T03:19:37.556Z,20.60
2022-08-04T03:22:49.138Z,20.50
2022-08-04T03:25:56.950Z,20.50
2022-08-04T03:29:00.546Z,20.50
2022-08-04T03:31:56.056Z,20.40
2022-08-04T03:34:37.911Z,20.40
2022-08-04T03:37:30.265Z,20.40
2022-08-04T03:40:45.417Z,20.40
2022-08-04T03:43:57.083Z,20.40
2022-08-04T03:46:45.504Z,20.30
2022-08-04T03:49:55.037Z,20.30
2022-08-04T03:53:09.504Z,20.30
2022-08-04T03:56:10.554Z,20.30
2022-08-04T03:59:09.037Z,20.20
2022-08-04T04:02:07.196Z,20.20
2022-08-04T04:05:04.925Z,20.10
2022-08-04T04:08:04.358Z,20.10
2022-08-04T04:11:01.170Z,20.20
2022-08-04T04:13:57.250Z,20.20
2022-08-04T04:16:38.412Z,20.10
2022-08-04T04:19:34.933Z,20.20
2022-08-04T04:22:18.666Z,20.20
2022-08-04T04:25:01.059Z,20.20
2022-08-04T04:27:41.137Z,20.30
2022-08-04T04:30:14.075Z,20.30
2022-08-04T04:33:04.188Z,20.30
2022-08-04T04:35:39.307Z,20.40
2022-08-04T04:38:30.384Z,20.40
2022-08-04T04:41:10.100Z,20.50
2022-08-04T04:44:12.419Z,20.60
2022-08-04T04:46:49.522Z,20.60
2022-08-04T04:49:27.040Z,20.60
2022-08-04T04:52:04.332Z,20.70
2022-08-04T04:54:36.495Z,20.70
2022-08-04T04:57:14.357Z,20.80
2022-08-04T04:59:50.058Z,20.80
2022-08-04T05:02:42.783Z,20.90
2022-08-04T05:05:26.944Z,21.00
2022-08-04T05:08:44.333Z,21.00
2022-08-04T05:11:43.734Z,21.10
2022-08-04T05:14:36.960Z,21.10
2022-08-04T05:17:07.019Z,21.20
2022-08-04T05:19:50.445Z,21.30
2022-08-04T05:22:24.116Z,21.40
2022-08-04T05:25:01.614Z,21.40
2022-08-04T05:27:39.874Z,21.50
2022-08-04T05:30:10.105Z,21.60
2022-08-04T05:32:46.732Z,21.70
2022-08-04T05:35:49.808Z,21.80
2022-08-04T05:38:17.972Z,21.90
2022-08-04T05:40:46.212Z,21.90
2022-08-04T05:43:15.276Z,22.00
2022-08-04T05:45:44.759Z,22.10
2022-08-04T05:48:13.282Z,22.20
2022-08-04T05:50:42.778Z,22.40
2022-08-04T05:53:12.442Z,22.50
2022-08-04T05:55:58.235Z,22.60
2022-08-04T05:58:30.353Z,22.80
2022-08-04T06:01:26.752Z,23.00
2022-08-04T06:03:56.867Z,23.00
2022-08-04T06:06:29.547Z,23.20
2022-08-04T06:08:57.950Z,23.30
2022-08-04T06:11:29.144Z,23.40
2022-08-04T06:14:00.739Z,23.50
2022-08-04T06:16:35.788Z,23.60
2022-08-04T06:19:58.892Z,23.70
2022-08-04T06:22:01.323Z,23.80
2022-08-04T06:24:32.031Z,23.90
2022-08-04T06:27:00.705Z,23.90
2022-08-04T06:29:34.535Z,23.90
2022-08-04T06:32:28.759Z,24.00
2022-08-04T06:35:02.839Z,24.00
2022-08-04T06:37:42.580Z,24.00
2022-08-04T06:40:30.612Z,24.10
2022-08-04T06:43:01.774Z,24.20
2022-08-04T06:45:30.410Z,24.30
2022-08-04T06:47:59.303Z,24.30
2022-08-04T06:51:25.533Z,24.40
2022-08-04T06:53:17.731Z,24.50
2022-08-04T06:55:47.951Z,24.60
2022-08-04T06:58:17.355Z,24.70
2022-08-04T07:00:47.421Z,24.80
2022-08-04T07:03:16.834Z,24.90
2022-08-04T07:05:47.344Z,25.00
2022-08-04T07:08:16.803Z,25.10
2022-08-04T07:10:46.929Z,25.20
2022-08-04T07:13:15.246Z,25.30
2022-08-04T07:15:45.885Z,25.30
2022-08-04T07:18:13.991Z,25.40
2022-08-04T07:20:43.470Z,25.50
2022-08-04T07:23:13.720Z,25.70
2022-08-04T07:26:00.166Z,25.90
2022-08-04T07:28:32.464Z,26.10
2022-08-04T07:31:00.404Z,26.20
2022-08-04T07:33:29.764Z,26.40
2022-08-04T07:36:09.717Z,26.50
2022-08-04T07:38:48.481Z,26.60
2022-08-04T07:41:38.710Z,26.70
2022-08-04T07:44:07.740Z,26.80
2022-08-04T07:46:35.989Z,26.80
2022-08-04T07:49:04.481Z,26.90
2022-08-04T07:51:35.299Z,27.00
2022-08-04T07:54:05.155Z,27.10
2022-08-04T07:56:36.276Z,27.20
2022-08-04T07:59:05.096Z,27.30
2022-08-04T08:01:33.785Z,27.40
2022-08-04T08:04:02.367Z,27.50
2022-08-04T08:06:35.611Z,27.60
2022-08-04T08:09:12.649Z,27.70
2022-08-04T08:12:36.814Z,27.90
2022-08-04T08:14:32.472Z,28.00
2022-08-04T08:17:02.293Z,28.10
2022-08-04T08:19:30.412Z,28.20
2022-08-04T08:22:00.623Z,28.30
2022-08-04T08:24:30.369Z,28.40
2022-08-04T08:27:00.117Z,28.50
2022-08-04T08:29:29.911Z,28.70
2022-08-04T08:32:02.730Z,28.80
2022-08-04T08:34:35.087Z,29.00
2022-08-04T08:37:10.592Z,29.20
2022-08-04T08:39:43.635Z,29.30
2022-08-04T08:42:45.081Z,29.50
2022-08-04T08:45:38.139Z,29.80
2022-08-04T08:48:19.698Z,30.10
2022-08-04T08:51:12.419Z,30.30
2022-08-04T08:54:00.112Z,30.30
2022-08-04T08:56:40.330Z,30.30
2022-08-04T08:59:36.167Z,30.40
2022-08-04T09:02:30.974Z,30.40
2022-08-04T09:05:18.794Z,30.40
2022-08-04T09:08:01.960Z,30.40
2022-08-04T09:10:37.312Z,30.60
2022-08-04T09:13:10.261Z,30.70
2022-08-04T09:15:47.401Z,30.80
2022-08-04T09:18:26.605Z,30.90
2022-08-04T09:21:00.455Z,31.10
2022-08-04T09:23:35.058Z,31.20
2022-08-04T09:26:09.965Z,31.30
2022-08-04T09:28:54.907Z,31.40
2022-08-04T09:31:52.904Z,31.40
2022-08-04T09:34:27.709Z,31.60
2022-08-04T09:37:05.695Z,31.60
2022-08-04T09:39:41.169Z,31.60
2022-08-04T09:42:25.653Z,31.70
2022-08-04T09:45:06.338Z,31.80
2022-08-04T09:47:41.007Z,31.80
2022-08-04T09:50:30.812Z,31.90
2022-08-04T09:53:12.033Z,31.90
2022-08-04T09:55:53.695Z,32.00
2022-08-04T09:58:34.881Z,32.10
2022-08-04T10:01:07.621Z,32.20
2022-08-04T10:03:40.550Z,32.10
2022-08-04T10:06:18.651Z,32.20
2022-08-04T10:09:00.042Z,32.20
2022-08-04T10:11:54.692Z,32.20
2022-08-04T10:14:39.218Z,32.20
2022-08-04T10:17:23.082Z,32.20
2022-08-04T10:20:04.228Z,32.20
2022-08-04T10:22:55.417Z,32.50
2022-08-04T10:26:06.816Z,32.70
2022-08-04T10:28:31.703Z,32.80
2022-08-04T10:31:06.037Z,32.90
2022-08-04T10:33:42.836Z,33.20
2022-08-04T10:36:17.583Z,33.40
2022-08-04T10:38:53.417Z,33.40
2022-08-04T10:41:28.542Z,33.40
2022-08-04T10:44:06.900Z,33.60
2022-08-04T10:46:41.639Z,33.60
2022-08-04T10:49:11.152Z,33.80
2022-08-04T10:51:57.479Z,33.90
2022-08-04T10:54:32.382Z,33.90
2022-08-04T10:57:13.815Z,33.90
2022-08-04T10:59:51.096Z,33.80
2022-08-04T11:02:30.657Z,33.80
2022-08-04T11:05:07.480Z,33.80
2022-08-04T11:07:40.067Z,33.80
2022-08-04T11:10:10.238Z,33.70
2022-08-04T11:12:41.417Z,33.60
2022-08-04T11:15:14.519Z,33.60
2022-08-04T11:17:47.946Z,33.50
2022-08-04T11:20:37.462Z,33.60
2022-08-04T11:23:09.861Z,33.60
2022-08-04T11:25:52.115Z,33.60
2022-08-04T11:28:32.271Z,33.60
2022-08-04T11:31:05.303Z,33.60
2022-08-04T11:33:38.676Z,33.40
2022-08-04T11:36:15.585Z,33.50
2022-08-04T11:38:52.260Z,33.60
2022-08-04T11:41:23.760Z,33.70
2022-08-04T11:44:01.791Z,33.80
2022-08-04T11:46:38.095Z,33.90
2022-08-04T11:49:11.865Z,34.10
2022-08-04T11:51:40.687Z,34.30
2022-08-04T11:54:10.255Z,34.50
2022-08-04T11:56:38.527Z,34.60
2022-08-04T11:59:08.890Z,34.80
2022-08-04T12:01:46.685Z,35.00
2022-08-04T12:04:24.785Z,35.00
2022-08-04T12:07:15.028Z,35.10
2022-08-04T12:09:53.953Z,35.10
2022-08-04T12:12:28.047Z,35.20
2022-08-04T12:15:03.337Z,35.30
2022-08-04T12:17:53.297Z,35.20
2022-08-04T12:20:31.775Z,35.30
2022-08-04T12:23:06.194Z,35.40
2022-08-04T12:25:44.877Z,35.60
2022-08-04T12:28:19.286Z,35.60
2022-08-04T12:30:57.342Z,35.60
2022-08-04T12:34:03.292Z,35.50
2022-08-04T12:36:32.921Z,35.30
2022-08-04T12:39:07.637Z,35.30
2022-08-04T12:41:41.763Z,35.20
2022-08-04T12:44:33.289Z,35.30
2022-08-04T12:47:26.664Z,35.30
2022-08-04T12:50:00.241Z,35.30
2022-08-04T12:52:51.782Z,35.40
2022-08-04T12:55:17.845Z,35.30
2022-08-04T12:57:48.916Z,35.40
2022-08-04T13:00:31.280Z,35.40
2022-08-04T13:03:09.561Z,35.40
2022-08-04T13:05:39.879Z,35.40
2022-08-04T13:08:09.502Z,35.50
2022-08-04T13:10:40.674Z,35.60
2022-08-04T13:13:15.989Z,35.60
2022-08-04T13:15:46.687Z,35.70
2022-08-04T13:18:16.378Z,35.60
2022-08-04T13:20:45.548Z,35.60
2022-08-04T13:23:21.455Z,35.40
2022-08-04T13:26:43.615Z,35.40
2022-08-04T13:28:43.694Z,35.50
2022-08-04T13:31:16.754Z,35.60
2022-08-04T13:33:48.195Z,35.60
2022-08-04T13:36:17.269Z,35.40
2022-08-04T13:38:50.619Z,35.20
2022-08-04T13:41:19.716Z,35.20
2022-08-04T13:44:18.582Z,35.20
2022-08-04T13:46:50.586Z,35.10
2022-08-04T13:49:42.594Z,35.00
2022-08-04T13:52:11.905Z,34.90
2022-08-04T13:54:43.511Z,34.70
2022-08-04T13:57:16.128Z,34.60
2022-08-04T13:59:49.202Z,34.70
2022-08-04T14:02:32.821Z,34.70
2022-08-04T14:05:18.716Z,34.80
2022-08-04T14:07:52.529Z,34.80
2022-08-04T14:10:20.534Z,35.00
2022-08-04T14:12:50.166Z,35.20
2022-08-04T14:16:01.408Z,35.30
2022-08-04T14:18:27.831Z,35.40
2022-08-04T14:21:04.797Z,35.40
2022-08-04T14:23:47.166Z,35.30
2022-08-04T14:26:17.970Z,35.30
2022-08-04T14:29:28.440Z,35.30
2022-08-04T14:31:35.434Z,35.30
2022-08-04T14:34:09.924Z,35.40
2022-08-04T14:37:17.899Z,35.50
2022-08-04T14:39:39.112Z,35.60
2022-08-04T14:42:08.192Z,35.60
2022-08-04T14:44:55.358Z,35.70
2022-08-04T14:47:52.974Z,35.60
2022-08-04T14:50:21.602Z,35.40
2022-08-04T14:52:49.683Z,35.20
2022-08-04T14:55:20.072Z,35.00
2022-08-04T14:58:37.124Z,34.80
2022-08-04T15:00:37.734Z,34.60
2022-08-04T15:03:09.523Z,34.40
2022-08-04T15:05:55.081Z,34.10
2022-08-04T15:08:31.510Z,33.90
2022-08-04T15:11:02.395Z,33.60
2022-08-04T15:13:30.498Z,33.20
2022-08-04T15:16:07.072Z,32.80
2022-08-04T15:18:38.793Z,32.50
2022-08-04T15:21:07.869Z,32.00
2022-08-04T15:23:39.514Z,30.80
2022-08-04T15:26:13.663Z,29.60
2022-08-04T15:28:45.693Z,28.50
2022-08-04T15:32:06.266Z,27.60
2022-08-04T15:34:05.864Z,27.00
2022-08-04T15:36:39.474Z,26.60
2022-08-04T15:39:19.295Z,26.40
2022-08-04T15:41:57.353Z,26.20
2022-08-04T15:45:05.122Z,26.20
2022-08-04T15:47:33.274Z,26.10
2022-08-04T15:50:08.528Z,26.20
2022-08-04T15:53:12.500Z,26.20
2022-08-04T15:55:43.016Z,26.20
2022-08-04T15:58:13.381Z,26.20
2022-08-04T16:01:15.722Z,26.20
2022-08-04T16:03:54.251Z,26.10
2022-08-04T16:06:45.617Z,26.00
2022-08-04T16:09:45.227Z,25.60
2022-08-04T16:12:55.004Z,25.30
2022-08-04T16:15:39.922Z,25.00
2022-08-04T16:18:14.146Z,24.60
2022-08-04T16:20:56.319Z,24.40
2022-08-04T16:24:05.620Z,24.20
2022-08-04T16:26:53.538Z,24.20
2022-08-04T16:29:29.394Z,24.10
2022-08-04T16:32:17.164Z,24.10
2022-08-04T16:34:54.304Z,24.20
2022-08-04T16:37:24.566Z,24.40
2022-08-04T16:40:31.691Z,24.50
2022-08-04T16:43:08.251Z,24.70
2022-08-04T16:45:58.867Z,24.80
2022-08-04T16:48:28.199Z,24.80
2022-08-04T16:51:05.761Z,24.90
2022-08-04T16:53:52.944Z,24.90
2022-08-04T16:56:33.396Z,24.80
2022-08-04T16:59:08.112Z,24.70
2022-08-04T17:01:36.812Z,24.60
2022-08-04T17:04:07.106Z,24.50
2022-08-04T17:06:37.543Z,24.50
2022-08-04T17:09:07.187Z,24.50
2022-08-04T17:11:36.347Z,24.50
2022-08-04T17:14:06.029Z,24.60
2022-08-04T17:16:36.382Z,24.50
2022-08-04T17:19:04.761Z,24.50
2022-08-04T17:21:34.985Z,24.50
2022-08-04T17:24:14.216Z,24.40
2022-08-04T17:26:53.573Z,24.40
2022-08-04T17:29:22.398Z,24.30
2022-08-04T17:31:53.525Z,24.20
2022-08-04T17:34:26.335Z,24.20
2022-08-04T17:36:59.713Z,24.10
2022-08-04T17:39:42.507Z,24.10
2022-08-04T17:42:11.842Z,24.10
2022-08-04T17:44:40.393Z,24.10
2022-08-04T17:47:18.679Z,24.10
2022-08-04T17:49:53.342Z,24.20
2022-08-04T17:52:39.622Z,24.20
2022-08-04T17:55:16.270Z,24.20
2022-08-04T17:57:52.693Z,24.20
2022-08-04T18:00:20.667Z,24.30
2022-08-04T18:02:54.399Z,24.30
2022-08-04T18:05:50.341Z,24.30
2022-08-04T18:08:45.418Z,24.30
2022-08-04T18:11:04.175Z,24.30
2022-08-04T18:13:42.622Z,24.20
2022-08-04T18:16:22.071Z,24.20
2022-08-04T18:19:09.536Z,24.20
2022-08-04T18:21:45.774Z,24.20
2022-08-04T18:24:34.354Z,24.10
2022-08-04T18:30:33.313Z,24.10
2022-08-04T18:33:04.326Z,24.00
2022-08-04T18:36:32.565Z,24.00
2022-08-04T18:38:26.169Z,23.90
2022-08-04T18:40:57.435Z,23.90
2022-08-04T18:43:41.220Z,23.90
2022-08-04T18:46:14.742Z,23.80
2022-08-04T18:48:45.222Z,23.80
2022-08-04T18:51:23.816Z,23.80
2022-08-04T18:53:59.199Z,23.70
2022-08-04T18:56:31.472Z,23.70
2022-08-04T18:59:01.792Z,23.70
2022-08-04T19:04:34.041Z,23.60
2022-08-04T19:09:59.545Z,23.60
2022-08-04T19:12:28.762Z,23.50
2022-08-04T19:15:08.095Z,23.40
2022-08-04T19:17:54.213Z,23.40
2022-08-04T19:20:26.779Z,23.30
2022-08-04T19:24:28.761Z,23.30
2022-08-04T19:26:01.482Z,23.20
2022-08-04T19:28:34.222Z,23.20
2022-08-04T19:31:34.041Z,23.10
2022-08-04T19:34:09.203Z,23.10
2022-08-04T19:36:37.367Z,23.10
2022-08-04T19:39:11.512Z,23.10
2022-08-04T19:42:04.355Z,23.00
2022-08-04T19:44:29.961Z,23.00
2022-08-04T19:47:00.813Z,23.00
2022-08-04T19:50:02.999Z,23.00
2022-08-04T19:52:33.472Z,23.00
2022-08-04T19:55:11.250Z,22.90
2022-08-04T19:57:46.103Z,22.90
2022-08-04T20:00:16.209Z,22.90
2022-08-04T20:02:44.549Z,22.90
2022-08-04T20:05:15.311Z,22.90
2022-08-04T20:07:44.350Z,22.80
2022-08-04T20:10:14.702Z,22.80
2022-08-04T20:12:55.716Z,22.80
2022-08-04T20:15:23.850Z,22.80
2022-08-04T20:18:08.447Z,22.70
2022-08-04T20:20:44.128Z,22.70
2022-08-04T20:23:12.120Z,22.60
2022-08-04T20:25:47.265Z,22.60
2022-08-04T20:28:25.737Z,22.60
2022-08-04T20:31:02.869Z,22.50
2022-08-04T20:33:30.659Z,22.50
2022-08-04T20:36:05.819Z,22.50
2022-08-04T20:38:34.720Z,22.50
2022-08-04T20:41:02.737Z,22.50
2022-08-04T20:43:31.379Z,22.60
2022-08-04T20:46:28.974Z,22.60
2022-08-04T20:48:57.737Z,22.60
2022-08-04T20:51:31.791Z,22.50
2022-08-04T20:54:01.889Z,22.50
2022-08-04T20:56:30.515Z,22.40
2022-08-04T20:58:59.449Z,22.30
2022-08-04T21:01:30.367Z,22.20
2022-08-04T21:04:27.192Z,22.10
2022-08-04T21:09:50.738Z,21.90
2022-08-04T21:12:29.327Z,21.90
2022-08-04T21:14:59.871Z,21.80
2022-08-04T21:17:58.278Z,21.80
2022-08-04T21:23:08.772Z,21.60
2022-08-04T21:25:43.541Z,21.50
2022-08-04T21:28:11.737Z,21.40
2022-08-04T21:30:54.550Z,21.30
2022-08-04T21:33:44.712Z,21.20
2022-08-04T21:36:12.850Z,21.20
2022-08-04T21:38:51.357Z,21.10
2022-08-04T21:41:24.943Z,21.10
2022-08-04T21:43:56.004Z,21.00
2022-08-04T21:46:23.995Z,21.00
2022-08-04T21:48:51.939Z,21.00
2022-08-04T21:51:57.366Z,20.90
2022-08-04T21:54:15.015Z,20.90
2022-08-04T21:56:50.764Z,20.80
2022-08-04T21:59:23.540Z,20.70
2022-08-04T22:04:48.297Z,20.70
2022-08-04T22:07:16.890Z,20.70
2022-08-04T22:10:00.054Z,20.60
2022-08-04T22:12:29.912Z,20.50
2022-08-04T22:14:59.767Z,20.50
2022-08-04T22:17:29.399Z,20.50
2022-08-04T22:20:03.217Z,20.40
2022-08-04T22:22:34.456Z,20.40
2022-08-04T22:25:13.274Z,20.40
2022-08-04T22:28:02.671Z,20.40
2022-08-04T22:30:33.232Z,20.30
2022-08-04T22:33:07.689Z,20.30
2022-08-04T22:35:44.220Z,20.20
2022-08-04T22:38:24.499Z,20.20
2022-08-04T22:40:59.689Z,20.20
2022-08-04T22:43:33.664Z,20.10
2022-08-04T22:46:05.022Z,20.10
2022-08-04T22:48:33.824Z,20.10
2022-08-04T22:51:02.635Z,20.10
2022-08-04T22:53:31.036Z,20.00
2022-08-04T22:56:09.601Z,20.00
2022-08-04T22:58:40.179Z,20.00
2022-08-04T23:01:09.003Z,20.00
2022-08-04T23:03:38.646Z,19.90
2022-08-04T23:06:10.582Z,19.90
2022-08-04T23:08:43.223Z,19.90
2022-08-04T23:11:15.847Z,19.90
2022-08-04T23:13:43.804Z,19.80
2022-08-04T23:16:12.244Z,19.90
2022-08-04T23:18:42.171Z,19.90
2022-08-04T23:21:11.136Z,19.90
2022-08-04T23:23:47.860Z,19.80
2022-08-04T23:26:29.687Z,19.80
2022-08-04T23:28:57.967Z,19.80
2022-08-04T23:31:41.681Z,19.70
2022-08-04T23:34:14.435Z,19.70
2022-08-04T23:36:46.506Z,19.70
2022-08-04T23:39:15.802Z,19.60
2022-08-04T23:41:53.715Z,19.50
2022-08-04T23:44:26.681Z,19.50
2022-08-04T23:47:00.070Z,19.50
2022-08-04T23:49:43.996Z,19.50
2022-08-04T23:52:23.448Z,19.50
2022-08-04T23:54:59.190Z,19.60
2022-08-04T23:57:31.165Z,19.60
